sensor_id;sensor_type;location;lat;lon;timestamp;P1;durP1;ratioP1;P2;durP2;ratioP2
70997;SDS011;58663;52.040;4.634;2023-11-18T00:00:18;55.85;;;22.63;;
70997;SDS011;58663;52.040;4.634;2023-11-18T00:02:44;58.45;;;24.88;;
70997;SDS011;58663;52.040;4.634;2023-11-18T00:05:10;59.58;;;24.83;;
70997;SDS011;58663;52.040;4.634;2023-11-18T00:07:36;58.33;;;22.77;;
70997;SDS011;58663;52.040;4.634;2023-11-18T00:10:01;55.50;;;24.35;;
70997;SDS011;58663;52.040;4.634;2023-11-18T00:12:28;57.65;;;23.92;;
70997;SDS011;58663;52.040;4.634;2023-11-18T00:14:53;54.70;;;23.65;;
70997;SDS011;58663;52.040;4.634;2023-11-18T00:17:19;52.95;;;22.15;;
70997;SDS011;58663;52.040;4.634;2023-11-18T00:19:45;51.33;;;21.83;;
70997;SDS011;58663;52.040;4.634;2023-11-18T00:22:11;48.70;;;22.05;;
70997;SDS011;58663;52.040;4.634;2023-11-18T00:24:36;50.03;;;21.90;;
70997;SDS011;58663;52.040;4.634;2023-11-18T00:27:03;53.45;;;20.08;;
70997;SDS011;58663;52.040;4.634;2023-11-18T00:29:32;48.60;;;21.80;;
70997;SDS011;58663;52.040;4.634;2023-11-18T00:31:58;49.38;;;22.35;;
70997;SDS011;58663;52.040;4.634;2023-11-18T00:34:24;53.80;;;21.02;;
70997;SDS011;58663;52.040;4.634;2023-11-18T00:36:49;53.22;;;21.42;;
70997;SDS011;58663;52.040;4.634;2023-11-18T00:39:14;47.75;;;22.08;;
70997;SDS011;58663;52.040;4.634;2023-11-18T00:41:40;55.90;;;22.10;;
70997;SDS011;58663;52.040;4.634;2023-11-18T00:44:05;58.65;;;23.52;;
70997;SDS011;58663;52.040;4.634;2023-11-18T00:46:32;54.40;;;23.08;;
70997;SDS011;58663;52.040;4.634;2023-11-18T00:49:00;58.58;;;23.65;;
70997;SDS011;58663;52.040;4.634;2023-11-18T00:51:26;67.45;;;25.17;;
70997;SDS011;58663;52.040;4.634;2023-11-18T00:53:52;59.53;;;23.73;;
70997;SDS011;58663;52.040;4.634;2023-11-18T00:56:19;55.95;;;25.80;;
70997;SDS011;58663;52.040;4.634;2023-11-18T00:58:46;62.67;;;24.92;;
70997;SDS011;58663;52.040;4.634;2023-11-18T01:01:14;58.40;;;24.83;;
70997;SDS011;58663;52.040;4.634;2023-11-18T01:03:42;58.08;;;24.92;;
70997;SDS011;58663;52.040;4.634;2023-11-18T01:06:09;61.05;;;24.52;;
70997;SDS011;58663;52.040;4.634;2023-11-18T01:08:34;50.25;;;24.95;;
70997;SDS011;58663;52.040;4.634;2023-11-18T01:10:59;55.25;;;24.65;;
70997;SDS011;58663;52.040;4.634;2023-11-18T01:13:25;63.17;;;25.48;;
70997;SDS011;58663;52.040;4.634;2023-11-18T01:15:51;59.28;;;24.83;;
70997;SDS011;58663;52.040;4.634;2023-11-18T01:18:17;57.00;;;24.77;;
70997;SDS011;58663;52.040;4.634;2023-11-18T01:20:42;55.90;;;24.90;;
70997;SDS011;58663;52.040;4.634;2023-11-18T01:23:08;60.78;;;26.10;;
70997;SDS011;58663;52.040;4.634;2023-11-18T01:25:33;59.28;;;25.73;;
70997;SDS011;58663;52.040;4.634;2023-11-18T01:27:59;55.90;;;25.15;;
70997;SDS011;58663;52.040;4.634;2023-11-18T01:30:25;64.78;;;26.15;;
70997;SDS011;58663;52.040;4.634;2023-11-18T01:32:51;63.75;;;27.45;;
70997;SDS011;58663;52.040;4.634;2023-11-18T01:35:17;51.30;;;25.20;;
70997;SDS011;58663;52.040;4.634;2023-11-18T01:37:42;67.32;;;27.13;;
70997;SDS011;58663;52.040;4.634;2023-11-18T01:40:09;60.00;;;27.42;;
70997;SDS011;58663;52.040;4.634;2023-11-18T01:42:38;65.90;;;27.77;;
70997;SDS011;58663;52.040;4.634;2023-11-18T01:45:03;64.45;;;28.20;;
70997;SDS011;58663;52.040;4.634;2023-11-18T01:47:32;59.15;;;26.80;;
70997;SDS011;58663;52.040;4.634;2023-11-18T01:49:59;54.60;;;26.58;;
70997;SDS011;58663;52.040;4.634;2023-11-18T01:52:26;59.70;;;26.98;;
70997;SDS011;58663;52.040;4.634;2023-11-18T01:54:52;65.88;;;27.40;;
70997;SDS011;58663;52.040;4.634;2023-11-18T01:57:20;66.05;;;27.65;;
70997;SDS011;58663;52.040;4.634;2023-11-18T01:59:46;62.58;;;26.80;;
70997;SDS011;58663;52.040;4.634;2023-11-18T02:02:11;67.13;;;27.70;;
70997;SDS011;58663;52.040;4.634;2023-11-18T02:04:38;63.50;;;28.00;;
70997;SDS011;58663;52.040;4.634;2023-11-18T02:07:04;63.88;;;27.27;;
70997;SDS011;58663;52.040;4.634;2023-11-18T02:09:34;63.30;;;26.80;;
70997;SDS011;58663;52.040;4.634;2023-11-18T02:14:49;70.25;;;28.90;;
70997;SDS011;58663;52.040;4.634;2023-11-18T02:17:17;65.18;;;27.63;;
70997;SDS011;58663;52.040;4.634;2023-11-18T02:19:43;62.78;;;28.15;;
70997;SDS011;58663;52.040;4.634;2023-11-18T02:22:09;59.67;;;26.88;;
70997;SDS011;58663;52.040;4.634;2023-11-18T02:24:36;61.80;;;28.27;;
70997;SDS011;58663;52.040;4.634;2023-11-18T02:27:02;58.20;;;28.63;;
70997;SDS011;58663;52.040;4.634;2023-11-18T02:29:33;58.58;;;27.05;;
70997;SDS011;58663;52.040;4.634;2023-11-18T02:32:07;62.85;;;28.70;;
70997;SDS011;58663;52.040;4.634;2023-11-18T02:34:39;64.85;;;28.83;;
70997;SDS011;58663;52.040;4.634;2023-11-18T02:37:07;59.78;;;29.30;;
70997;SDS011;58663;52.040;4.634;2023-11-18T02:39:39;65.78;;;29.77;;
70997;SDS011;58663;52.040;4.634;2023-11-18T02:42:06;72.38;;;30.30;;
70997;SDS011;58663;52.040;4.634;2023-11-18T02:44:33;75.20;;;30.08;;
70997;SDS011;58663;52.040;4.634;2023-11-18T02:47:01;62.08;;;27.27;;
70997;SDS011;58663;52.040;4.634;2023-11-18T02:49:26;69.68;;;29.15;;
70997;SDS011;58663;52.040;4.634;2023-11-18T02:51:52;66.05;;;29.65;;
70997;SDS011;58663;52.040;4.634;2023-11-18T02:54:18;69.82;;;29.38;;
70997;SDS011;58663;52.040;4.634;2023-11-18T02:56:44;62.25;;;28.85;;
70997;SDS011;58663;52.040;4.634;2023-11-18T02:59:10;67.07;;;30.30;;
70997;SDS011;58663;52.040;4.634;2023-11-18T03:01:35;68.70;;;31.67;;
70997;SDS011;58663;52.040;4.634;2023-11-18T03:04:04;69.88;;;29.33;;
70997;SDS011;58663;52.040;4.634;2023-11-18T03:06:30;70.63;;;30.38;;
70997;SDS011;58663;52.040;4.634;2023-11-18T03:08:57;64.25;;;29.50;;
70997;SDS011;58663;52.040;4.634;2023-11-18T03:11:22;66.65;;;27.58;;
70997;SDS011;58663;52.040;4.634;2023-11-18T03:13:47;68.43;;;28.98;;
70997;SDS011;58663;52.040;4.634;2023-11-18T03:16:13;67.88;;;29.90;;
70997;SDS011;58663;52.040;4.634;2023-11-18T03:18:39;69.63;;;28.17;;
70997;SDS011;58663;52.040;4.634;2023-11-18T03:21:06;54.50;;;25.98;;
70997;SDS011;58663;52.040;4.634;2023-11-18T03:23:37;61.50;;;26.80;;
70997;SDS011;58663;52.040;4.634;2023-11-18T03:26:03;52.55;;;26.35;;
70997;SDS011;58663;52.040;4.634;2023-11-18T03:28:28;66.18;;;28.33;;
70997;SDS011;58663;52.040;4.634;2023-11-18T03:30:53;54.83;;;26.17;;
70997;SDS011;58663;52.040;4.634;2023-11-18T03:33:19;54.42;;;25.25;;
70997;SDS011;58663;52.040;4.634;2023-11-18T03:35:44;60.60;;;25.35;;
70997;SDS011;58663;52.040;4.634;2023-11-18T03:38:10;52.20;;;24.85;;
70997;SDS011;58663;52.040;4.634;2023-11-18T03:40:35;59.60;;;25.42;;
70997;SDS011;58663;52.040;4.634;2023-11-18T03:43:01;52.72;;;24.52;;
70997;SDS011;58663;52.040;4.634;2023-11-18T03:45:26;50.03;;;23.80;;
70997;SDS011;58663;52.040;4.634;2023-11-18T03:47:51;45.80;;;23.13;;
70997;SDS011;58663;52.040;4.634;2023-11-18T03:50:17;63.05;;;25.83;;
70997;SDS011;58663;52.040;4.634;2023-11-18T03:52:42;72.63;;;25.80;;
70997;SDS011;58663;52.040;4.634;2023-11-18T03:55:08;58.97;;;26.35;;
70997;SDS011;58663;52.040;4.634;2023-11-18T03:57:33;55.90;;;25.33;;
70997;SDS011;58663;52.040;4.634;2023-11-18T03:59:59;54.88;;;27.20;;
70997;SDS011;58663;52.040;4.634;2023-11-18T04:02:25;56.22;;;26.77;;
70997;SDS011;58663;52.040;4.634;2023-11-18T04:04:50;53.60;;;25.50;;
70997;SDS011;58663;52.040;4.634;2023-11-18T04:07:16;58.47;;;27.13;;
70997;SDS011;58663;52.040;4.634;2023-11-18T04:09:42;56.20;;;28.95;;
70997;SDS011;58663;52.040;4.634;2023-11-18T04:12:08;60.25;;;29.10;;
70997;SDS011;58663;52.040;4.634;2023-11-18T04:14:34;55.40;;;28.55;;
70997;SDS011;58663;52.040;4.634;2023-11-18T04:17:01;63.13;;;29.23;;
70997;SDS011;58663;52.040;4.634;2023-11-18T04:19:26;56.92;;;29.80;;
70997;SDS011;58663;52.040;4.634;2023-11-18T04:21:52;70.32;;;30.58;;
70997;SDS011;58663;52.040;4.634;2023-11-18T04:24:17;64.03;;;31.02;;
70997;SDS011;58663;52.040;4.634;2023-11-18T04:26:43;64.78;;;30.98;;
70997;SDS011;58663;52.040;4.634;2023-11-18T04:29:08;84.07;;;33.85;;
70997;SDS011;58663;52.040;4.634;2023-11-18T04:31:33;68.45;;;33.17;;
70997;SDS011;58663;52.040;4.634;2023-11-18T04:34:02;72.45;;;33.03;;
70997;SDS011;58663;52.040;4.634;2023-11-18T04:36:29;66.43;;;30.88;;
70997;SDS011;58663;52.040;4.634;2023-11-18T04:38:56;74.93;;;32.78;;
70997;SDS011;58663;52.040;4.634;2023-11-18T04:41:21;67.28;;;31.35;;
70997;SDS011;58663;52.040;4.634;2023-11-18T04:43:48;67.90;;;32.22;;
70997;SDS011;58663;52.040;4.634;2023-11-18T04:46:14;65.45;;;30.77;;
70997;SDS011;58663;52.040;4.634;2023-11-18T04:48:39;71.63;;;31.95;;
70997;SDS011;58663;52.040;4.634;2023-11-18T04:51:04;66.75;;;29.90;;
70997;SDS011;58663;52.040;4.634;2023-11-18T04:53:30;69.53;;;31.50;;
70997;SDS011;58663;52.040;4.634;2023-11-18T04:55:57;62.92;;;29.50;;
70997;SDS011;58663;52.040;4.634;2023-11-18T04:58:23;64.03;;;29.52;;
70997;SDS011;58663;52.040;4.634;2023-11-18T05:00:49;69.90;;;30.10;;
70997;SDS011;58663;52.040;4.634;2023-11-18T05:03:16;63.03;;;29.35;;
70997;SDS011;58663;52.040;4.634;2023-11-18T05:05:41;61.90;;;30.02;;
70997;SDS011;58663;52.040;4.634;2023-11-18T05:08:07;60.55;;;28.48;;
70997;SDS011;58663;52.040;4.634;2023-11-18T05:10:33;66.43;;;28.55;;
70997;SDS011;58663;52.040;4.634;2023-11-18T05:12:59;63.67;;;29.35;;
70997;SDS011;58663;52.040;4.634;2023-11-18T05:15:25;57.67;;;28.80;;
70997;SDS011;58663;52.040;4.634;2023-11-18T05:17:51;61.50;;;29.55;;
70997;SDS011;58663;52.040;4.634;2023-11-18T05:20:17;54.95;;;27.25;;
70997;SDS011;58663;52.040;4.634;2023-11-18T05:22:43;62.72;;;28.52;;
70997;SDS011;58663;52.040;4.634;2023-11-18T05:25:08;57.42;;;28.23;;
70997;SDS011;58663;52.040;4.634;2023-11-18T05:27:34;70.70;;;28.08;;
70997;SDS011;58663;52.040;4.634;2023-11-18T05:30:00;50.60;;;27.58;;
70997;SDS011;58663;52.040;4.634;2023-11-18T05:32:29;59.13;;;28.95;;
70997;SDS011;58663;52.040;4.634;2023-11-18T05:34:55;66.43;;;27.27;;
70997;SDS011;58663;52.040;4.634;2023-11-18T05:37:22;58.85;;;26.50;;
70997;SDS011;58663;52.040;4.634;2023-11-18T05:39:48;54.45;;;25.92;;
70997;SDS011;58663;52.040;4.634;2023-11-18T05:42:18;60.55;;;26.45;;
70997;SDS011;58663;52.040;4.634;2023-11-18T05:44:44;58.50;;;25.98;;
70997;SDS011;58663;52.040;4.634;2023-11-18T05:47:09;62.33;;;27.45;;
70997;SDS011;58663;52.040;4.634;2023-11-18T05:49:37;58.10;;;27.42;;
70997;SDS011;58663;52.040;4.634;2023-11-18T05:52:03;67.95;;;27.85;;
70997;SDS011;58663;52.040;4.634;2023-11-18T05:54:29;51.05;;;25.85;;
70997;SDS011;58663;52.040;4.634;2023-11-18T05:56:54;60.92;;;26.08;;
70997;SDS011;58663;52.040;4.634;2023-11-18T05:59:19;54.42;;;24.38;;
70997;SDS011;58663;52.040;4.634;2023-11-18T06:01:47;63.17;;;24.02;;
70997;SDS011;58663;52.040;4.634;2023-11-18T06:04:12;55.15;;;24.38;;
70997;SDS011;58663;52.040;4.634;2023-11-18T06:06:38;57.40;;;24.00;;
70997;SDS011;58663;52.040;4.634;2023-11-18T06:09:03;53.22;;;23.55;;
70997;SDS011;58663;52.040;4.634;2023-11-18T06:11:34;49.53;;;22.33;;
70997;SDS011;58663;52.040;4.634;2023-11-18T06:14:00;51.40;;;22.42;;
70997;SDS011;58663;52.040;4.634;2023-11-18T06:16:26;51.70;;;21.42;;
70997;SDS011;58663;52.040;4.634;2023-11-18T06:18:52;56.25;;;22.02;;
70997;SDS011;58663;52.040;4.634;2023-11-18T06:21:25;48.58;;;20.98;;
70997;SDS011;58663;52.040;4.634;2023-11-18T06:23:55;44.70;;;20.52;;
70997;SDS011;58663;52.040;4.634;2023-11-18T06:26:20;46.38;;;19.90;;
70997;SDS011;58663;52.040;4.634;2023-11-18T06:28:47;52.45;;;21.88;;
70997;SDS011;58663;52.040;4.634;2023-11-18T06:31:14;55.25;;;20.75;;
70997;SDS011;58663;52.040;4.634;2023-11-18T06:33:42;62.28;;;20.83;;
70997;SDS011;58663;52.040;4.634;2023-11-18T06:38:47;55.20;;;21.05;;
70997;SDS011;58663;52.040;4.634;2023-11-18T06:41:16;45.97;;;19.70;;
70997;SDS011;58663;52.040;4.634;2023-11-18T06:43:44;46.28;;;20.00;;
70997;SDS011;58663;52.040;4.634;2023-11-18T06:46:19;42.35;;;18.85;;
70997;SDS011;58663;52.040;4.634;2023-11-18T06:48:49;47.13;;;19.75;;
70997;SDS011;58663;52.040;4.634;2023-11-18T06:51:19;50.53;;;19.38;;
70997;SDS011;58663;52.040;4.634;2023-11-18T06:53:50;49.35;;;20.15;;
70997;SDS011;58663;52.040;4.634;2023-11-18T06:56:17;50.65;;;19.30;;
70997;SDS011;58663;52.040;4.634;2023-11-18T06:58:42;44.13;;;18.17;;
70997;SDS011;58663;52.040;4.634;2023-11-18T07:01:08;53.97;;;19.35;;
70997;SDS011;58663;52.040;4.634;2023-11-18T07:03:34;50.80;;;18.20;;
70997;SDS011;58663;52.040;4.634;2023-11-18T07:06:01;48.30;;;19.10;;
70997;SDS011;58663;52.040;4.634;2023-11-18T07:08:27;56.08;;;19.88;;
70997;SDS011;58663;52.040;4.634;2023-11-18T07:10:52;41.97;;;17.33;;
70997;SDS011;58663;52.040;4.634;2023-11-18T07:13:18;47.40;;;18.98;;
70997;SDS011;58663;52.040;4.634;2023-11-18T07:15:43;42.78;;;18.30;;
70997;SDS011;58663;52.040;4.634;2023-11-18T07:18:08;44.50;;;18.73;;
70997;SDS011;58663;52.040;4.634;2023-11-18T07:20:34;36.60;;;18.33;;
70997;SDS011;58663;52.040;4.634;2023-11-18T07:22:59;46.50;;;19.13;;
70997;SDS011;58663;52.040;4.634;2023-11-18T07:25:25;39.42;;;17.08;;
70997;SDS011;58663;52.040;4.634;2023-11-18T07:27:50;44.30;;;17.05;;
70997;SDS011;58663;52.040;4.634;2023-11-18T07:30:16;47.47;;;17.63;;
70997;SDS011;58663;52.040;4.634;2023-11-18T07:32:41;40.72;;;17.60;;
70997;SDS011;58663;52.040;4.634;2023-11-18T07:35:07;39.75;;;16.90;;
70997;SDS011;58663;52.040;4.634;2023-11-18T07:37:34;44.60;;;17.85;;
70997;SDS011;58663;52.040;4.634;2023-11-18T07:40:02;43.00;;;16.77;;
70997;SDS011;58663;52.040;4.634;2023-11-18T07:42:30;46.22;;;16.55;;
70997;SDS011;58663;52.040;4.634;2023-11-18T07:44:59;44.63;;;16.93;;
70997;SDS011;58663;52.040;4.634;2023-11-18T07:47:28;38.55;;;16.23;;
70997;SDS011;58663;52.040;4.634;2023-11-18T07:49:56;34.35;;;16.52;;
70997;SDS011;58663;52.040;4.634;2023-11-18T07:52:21;42.00;;;16.65;;
70997;SDS011;58663;52.040;4.634;2023-11-18T07:54:47;36.22;;;16.25;;
70997;SDS011;58663;52.040;4.634;2023-11-18T07:57:13;32.63;;;15.02;;
70997;SDS011;58663;52.040;4.634;2023-11-18T07:59:39;40.50;;;16.15;;
70997;SDS011;58663;52.040;4.634;2023-11-18T08:02:04;38.90;;;16.27;;
70997;SDS011;58663;52.040;4.634;2023-11-18T08:04:34;33.10;;;15.93;;
70997;SDS011;58663;52.040;4.634;2023-11-18T08:07:00;41.72;;;15.40;;
70997;SDS011;58663;52.040;4.634;2023-11-18T08:09:25;34.75;;;15.10;;
70997;SDS011;58663;52.040;4.634;2023-11-18T08:11:51;33.95;;;14.65;;
70997;SDS011;58663;52.040;4.634;2023-11-18T08:14:18;31.30;;;14.95;;
70997;SDS011;58663;52.040;4.634;2023-11-18T08:16:43;35.42;;;15.20;;
70997;SDS011;58663;52.040;4.634;2023-11-18T08:19:08;42.10;;;15.73;;
70997;SDS011;58663;52.040;4.634;2023-11-18T08:21:34;32.38;;;13.98;;
70997;SDS011;58663;52.040;4.634;2023-11-18T08:24:02;37.33;;;14.68;;
70997;SDS011;58663;52.040;4.634;2023-11-18T08:26:29;27.27;;;12.35;;
70997;SDS011;58663;52.040;4.634;2023-11-18T08:28:54;33.13;;;14.52;;
70997;SDS011;58663;52.040;4.634;2023-11-18T08:31:20;30.38;;;14.30;;
70997;SDS011;58663;52.040;4.634;2023-11-18T08:33:46;32.05;;;13.00;;
70997;SDS011;58663;52.040;4.634;2023-11-18T08:36:11;33.20;;;14.45;;
70997;SDS011;58663;52.040;4.634;2023-11-18T08:38:37;33.10;;;14.30;;
70997;SDS011;58663;52.040;4.634;2023-11-18T08:41:03;31.50;;;13.93;;
70997;SDS011;58663;52.040;4.634;2023-11-18T08:43:30;25.25;;;12.85;;
70997;SDS011;58663;52.040;4.634;2023-11-18T08:45:56;35.30;;;13.88;;
70997;SDS011;58663;52.040;4.634;2023-11-18T08:48:21;31.75;;;13.68;;
70997;SDS011;58663;52.040;4.634;2023-11-18T08:50:48;38.72;;;13.32;;
70997;SDS011;58663;52.040;4.634;2023-11-18T08:53:13;22.65;;;11.93;;
70997;SDS011;58663;52.040;4.634;2023-11-18T08:55:42;30.35;;;12.50;;
70997;SDS011;58663;52.040;4.634;2023-11-18T08:58:16;33.78;;;12.55;;
70997;SDS011;58663;52.040;4.634;2023-11-18T09:00:48;27.33;;;11.25;;
70997;SDS011;58663;52.040;4.634;2023-11-18T09:03:17;25.80;;;11.65;;
70997;SDS011;58663;52.040;4.634;2023-11-18T09:05:59;27.15;;;11.38;;
70997;SDS011;58663;52.040;4.634;2023-11-18T09:08:29;18.73;;;11.07;;
70997;SDS011;58663;52.040;4.634;2023-11-18T09:13:30;24.20;;;10.05;;
70997;SDS011;58663;52.040;4.634;2023-11-18T09:15:59;26.95;;;11.27;;
70997;SDS011;58663;52.040;4.634;2023-11-18T09:18:34;24.83;;;9.90;;
70997;SDS011;58663;52.040;4.634;2023-11-18T09:21:01;23.40;;;10.52;;
70997;SDS011;58663;52.040;4.634;2023-11-18T09:23:27;24.95;;;10.88;;
70997;SDS011;58663;52.040;4.634;2023-11-18T09:25:53;33.00;;;11.25;;
70997;SDS011;58663;52.040;4.634;2023-11-18T09:28:20;28.30;;;9.82;;
70997;SDS011;58663;52.040;4.634;2023-11-18T09:30:46;25.27;;;9.38;;
70997;SDS011;58663;52.040;4.634;2023-11-18T09:33:23;25.85;;;9.63;;
70997;SDS011;58663;52.040;4.634;2023-11-18T09:35:58;25.98;;;10.20;;
70997;SDS011;58663;52.040;4.634;2023-11-18T09:38:28;24.52;;;9.88;;
70997;SDS011;58663;52.040;4.634;2023-11-18T09:40:58;19.73;;;9.18;;
70997;SDS011;58663;52.040;4.634;2023-11-18T09:43:35;22.63;;;8.25;;
70997;SDS011;58663;52.040;4.634;2023-11-18T09:46:07;15.52;;;8.27;;
70997;SDS011;58663;52.040;4.634;2023-11-18T09:51:22;13.93;;;7.78;;
70997;SDS011;58663;52.040;4.634;2023-11-18T09:53:52;19.98;;;7.80;;
70997;SDS011;58663;52.040;4.634;2023-11-18T09:56:31;18.33;;;7.65;;
70997;SDS011;58663;52.040;4.634;2023-11-18T09:59:16;19.00;;;7.10;;
70997;SDS011;58663;52.040;4.634;2023-11-18T10:01:44;17.55;;;7.43;;
70997;SDS011;58663;52.040;4.634;2023-11-18T10:04:18;20.88;;;7.50;;
70997;SDS011;58663;52.040;4.634;2023-11-18T10:06:45;15.70;;;6.32;;
70997;SDS011;58663;52.040;4.634;2023-11-18T10:09:12;13.63;;;6.65;;
70997;SDS011;58663;52.040;4.634;2023-11-18T10:11:44;11.40;;;6.03;;
70997;SDS011;58663;52.040;4.634;2023-11-18T10:14:15;18.75;;;6.70;;
70997;SDS011;58663;52.040;4.634;2023-11-18T10:16:41;12.73;;;6.32;;
70997;SDS011;58663;52.040;4.634;2023-11-18T10:19:11;15.98;;;7.07;;
70997;SDS011;58663;52.040;4.634;2023-11-18T10:21:37;15.02;;;7.10;;
70997;SDS011;58663;52.040;4.634;2023-11-18T10:24:04;25.02;;;6.18;;
70997;SDS011;58663;52.040;4.634;2023-11-18T10:26:35;14.07;;;6.30;;
70997;SDS011;58663;52.040;4.634;2023-11-18T10:29:03;19.08;;;6.47;;
70997;SDS011;58663;52.040;4.634;2023-11-18T10:31:33;17.87;;;6.20;;
70997;SDS011;58663;52.040;4.634;2023-11-18T10:34:00;16.20;;;6.15;;
70997;SDS011;58663;52.040;4.634;2023-11-18T10:36:26;16.55;;;6.18;;
70997;SDS011;58663;52.040;4.634;2023-11-18T10:38:54;20.70;;;6.03;;
70997;SDS011;58663;52.040;4.634;2023-11-18T10:41:20;14.65;;;6.80;;
70997;SDS011;58663;52.040;4.634;2023-11-18T10:43:46;16.45;;;5.90;;
70997;SDS011;58663;52.040;4.634;2023-11-18T10:46:13;16.20;;;5.68;;
70997;SDS011;58663;52.040;4.634;2023-11-18T10:48:48;13.35;;;6.35;;
70997;SDS011;58663;52.040;4.634;2023-11-18T10:51:16;11.82;;;5.95;;
70997;SDS011;58663;52.040;4.634;2023-11-18T10:53:46;13.20;;;5.70;;
70997;SDS011;58663;52.040;4.634;2023-11-18T10:56:26;13.25;;;5.43;;
70997;SDS011;58663;52.040;4.634;2023-11-18T10:58:53;16.55;;;5.72;;
70997;SDS011;58663;52.040;4.634;2023-11-18T11:01:32;22.02;;;6.40;;
70997;SDS011;58663;52.040;4.634;2023-11-18T11:04:07;16.42;;;5.93;;
70997;SDS011;58663;52.040;4.634;2023-11-18T11:06:35;17.73;;;6.15;;
70997;SDS011;58663;52.040;4.634;2023-11-18T11:09:02;13.43;;;6.20;;
70997;SDS011;58663;52.040;4.634;2023-11-18T11:11:44;13.60;;;6.13;;
70997;SDS011;58663;52.040;4.634;2023-11-18T11:14:13;16.88;;;5.85;;
70997;SDS011;58663;52.040;4.634;2023-11-18T11:16:42;11.73;;;5.50;;
70997;SDS011;58663;52.040;4.634;2023-11-18T11:19:33;18.35;;;6.47;;
70997;SDS011;58663;52.040;4.634;2023-11-18T11:22:09;15.48;;;6.13;;
70997;SDS011;58663;52.040;4.634;2023-11-18T11:27:38;18.48;;;5.47;;
70997;SDS011;58663;52.040;4.634;2023-11-18T11:30:20;15.63;;;5.72;;
70997;SDS011;58663;52.040;4.634;2023-11-18T11:32:51;15.43;;;6.00;;
70997;SDS011;58663;52.040;4.634;2023-11-18T11:37:47;9.68;;;5.20;;
70997;SDS011;58663;52.040;4.634;2023-11-18T11:40:14;11.05;;;5.55;;
70997;SDS011;58663;52.040;4.634;2023-11-18T11:42:47;11.75;;;6.10;;
70997;SDS011;58663;52.040;4.634;2023-11-18T11:45:15;14.63;;;5.25;;
70997;SDS011;58663;52.040;4.634;2023-11-18T11:47:46;14.23;;;5.70;;
70997;SDS011;58663;52.040;4.634;2023-11-18T11:50:22;8.35;;;4.68;;
70997;SDS011;58663;52.040;4.634;2023-11-18T11:53:02;9.50;;;5.15;;
70997;SDS011;58663;52.040;4.634;2023-11-18T11:55:38;12.20;;;5.75;;
70997;SDS011;58663;52.040;4.634;2023-11-18T11:58:30;9.18;;;4.88;;
70997;SDS011;58663;52.040;4.634;2023-11-18T12:01:02;12.63;;;4.57;;
70997;SDS011;58663;52.040;4.634;2023-11-18T12:03:59;6.40;;;4.15;;
70997;SDS011;58663;52.040;4.634;2023-11-18T12:06:31;9.18;;;4.63;;
70997;SDS011;58663;52.040;4.634;2023-11-18T12:09:00;7.40;;;4.45;;
70997;SDS011;58663;52.040;4.634;2023-11-18T12:11:32;13.80;;;5.55;;
70997;SDS011;58663;52.040;4.634;2023-11-18T12:14:11;9.88;;;4.70;;
70997;SDS011;58663;52.040;4.634;2023-11-18T12:16:57;11.43;;;4.90;;
70997;SDS011;58663;52.040;4.634;2023-11-18T12:19:29;11.18;;;4.57;;
70997;SDS011;58663;52.040;4.634;2023-11-18T12:21:56;9.15;;;5.07;;
70997;SDS011;58663;52.040;4.634;2023-11-18T12:24:21;9.63;;;4.32;;
70997;SDS011;58663;52.040;4.634;2023-11-18T12:26:47;6.80;;;4.63;;
70997;SDS011;58663;52.040;4.634;2023-11-18T12:29:30;9.93;;;4.03;;
70997;SDS011;58663;52.040;4.634;2023-11-18T12:32:01;8.73;;;3.85;;
70997;SDS011;58663;52.040;4.634;2023-11-18T12:40:03;10.38;;;3.88;;
70997;SDS011;58663;52.040;4.634;2023-11-18T12:42:58;8.50;;;3.53;;
70997;SDS011;58663;52.040;4.634;2023-11-18T12:45:43;9.10;;;3.45;;
70997;SDS011;58663;52.040;4.634;2023-11-18T12:48:21;9.45;;;3.95;;
70997;SDS011;58663;52.040;4.634;2023-11-18T12:50:52;6.43;;;4.07;;
70997;SDS011;58663;52.040;4.634;2023-11-18T12:53:20;8.68;;;3.40;;
70997;SDS011;58663;52.040;4.634;2023-11-18T12:55:49;10.20;;;3.50;;
70997;SDS011;58663;52.040;4.634;2023-11-18T12:58:14;5.22;;;4.00;;
70997;SDS011;58663;52.040;4.634;2023-11-18T13:00:40;6.75;;;3.95;;
70997;SDS011;58663;52.040;4.634;2023-11-18T13:03:07;8.57;;;3.90;;
70997;SDS011;58663;52.040;4.634;2023-11-18T13:05:35;8.70;;;3.45;;
70997;SDS011;58663;52.040;4.634;2023-11-18T13:08:02;7.72;;;4.10;;
70997;SDS011;58663;52.040;4.634;2023-11-18T13:10:28;5.38;;;3.50;;
70997;SDS011;58663;52.040;4.634;2023-11-18T13:12:53;8.65;;;3.78;;
70997;SDS011;58663;52.040;4.634;2023-11-18T13:15:19;13.45;;;3.92;;
70997;SDS011;58663;52.040;4.634;2023-11-18T13:20:23;5.68;;;3.80;;
70997;SDS011;58663;52.040;4.634;2023-11-18T13:22:51;6.15;;;3.90;;
70997;SDS011;58663;52.040;4.634;2023-11-18T13:25:17;16.60;;;3.80;;
70997;SDS011;58663;52.040;4.634;2023-11-18T13:27:42;6.93;;;3.20;;
70997;SDS011;58663;52.040;4.634;2023-11-18T13:30:08;8.70;;;3.80;;
70997;SDS011;58663;52.040;4.634;2023-11-18T13:32:41;5.78;;;3.38;;
70997;SDS011;58663;52.040;4.634;2023-11-18T13:35:07;7.38;;;3.47;;
70997;SDS011;58663;52.040;4.634;2023-11-18T13:37:33;6.13;;;3.28;;
70997;SDS011;58663;52.040;4.634;2023-11-18T13:39:59;7.68;;;3.60;;
70997;SDS011;58663;52.040;4.634;2023-11-18T13:42:25;4.65;;;3.55;;
70997;SDS011;58663;52.040;4.634;2023-11-18T13:44:53;8.45;;;3.95;;
70997;SDS011;58663;52.040;4.634;2023-11-18T13:47:21;7.30;;;3.28;;
70997;SDS011;58663;52.040;4.634;2023-11-18T13:49:53;5.00;;;3.45;;
70997;SDS011;58663;52.040;4.634;2023-11-18T13:52:19;5.18;;;3.25;;
70997;SDS011;58663;52.040;4.634;2023-11-18T13:54:46;5.35;;;3.67;;
70997;SDS011;58663;52.040;4.634;2023-11-18T13:57:12;7.18;;;3.83;;
70997;SDS011;58663;52.040;4.634;2023-11-18T13:59:38;4.85;;;3.03;;
70997;SDS011;58663;52.040;4.634;2023-11-18T14:02:04;3.65;;;2.90;;
70997;SDS011;58663;52.040;4.634;2023-11-18T14:04:30;8.38;;;3.15;;
70997;SDS011;58663;52.040;4.634;2023-11-18T14:07:00;4.82;;;3.55;;
70997;SDS011;58663;52.040;4.634;2023-11-18T14:09:30;4.50;;;3.03;;
70997;SDS011;58663;52.040;4.634;2023-11-18T14:12:05;4.80;;;3.00;;
70997;SDS011;58663;52.040;4.634;2023-11-18T14:14:31;3.47;;;2.90;;
70997;SDS011;58663;52.040;4.634;2023-11-18T14:16:57;3.97;;;2.80;;
70997;SDS011;58663;52.040;4.634;2023-11-18T14:19:24;5.22;;;3.30;;
70997;SDS011;58663;52.040;4.634;2023-11-18T14:21:55;3.72;;;2.92;;
70997;SDS011;58663;52.040;4.634;2023-11-18T14:24:21;5.20;;;2.75;;
70997;SDS011;58663;52.040;4.634;2023-11-18T14:26:55;3.60;;;2.60;;
70997;SDS011;58663;52.040;4.634;2023-11-18T14:29:21;4.05;;;2.60;;
70997;SDS011;58663;52.040;4.634;2023-11-18T14:31:47;5.82;;;2.42;;
70997;SDS011;58663;52.040;4.634;2023-11-18T14:34:13;4.20;;;2.88;;
70997;SDS011;58663;52.040;4.634;2023-11-18T14:36:38;4.95;;;2.97;;
70997;SDS011;58663;52.040;4.634;2023-11-18T14:39:05;3.20;;;2.60;;
70997;SDS011;58663;52.040;4.634;2023-11-18T14:41:34;3.60;;;2.78;;
70997;SDS011;58663;52.040;4.634;2023-11-18T14:44:00;4.82;;;2.97;;
70997;SDS011;58663;52.040;4.634;2023-11-18T14:46:27;4.90;;;3.30;;
70997;SDS011;58663;52.040;4.634;2023-11-18T14:48:52;6.93;;;3.17;;
70997;SDS011;58663;52.040;4.634;2023-11-18T14:51:18;3.13;;;2.80;;
70997;SDS011;58663;52.040;4.634;2023-11-18T14:53:43;3.20;;;2.78;;
70997;SDS011;58663;52.040;4.634;2023-11-18T14:56:09;3.97;;;3.22;;